Montfermeil, France

11:36 PM CET on February 07, 2016 (GMT +0100)
Meteo 93 | | Change Station
CLOSE
Current Station
Personal Weather Station
Location: Montfermeil, SEINE SAINT DENIS
Elevation: 390 ft
Nearby Weather Stations

Elev 390 ft 48.90 °N, 2.55 °E | Updated 8 seconds ago

Overcast
Overcast
47.8 °F
Feels Like 45 °F
N
5.6
Wind Variable Wind from SSE
Gusts 18.1 mph

Today
High -- | Low -- °F
--% Chance of Precip.
Yesterday
High -- | Low -- °F
Precip. -- in
Pressure 29.62 in
Visibility 6.2 miles
Clouds Mostly Cloudy 2400 ft
Mostly Cloudy 3000 ft
Overcast 4200 ft
Windchill 45 °F
Dew Point 41 °F
Humidity 78%
Rainfall 0.16 in
Snow Depth Not available.
8:12 AM 5:56 PM
Waning Crescent, 1% visible
METAR LFPB 072230Z AUTO 20019KT 180V240 9999 BKN024 BKN030 OVC042 09/04 Q1003
Pressure 29.62 in
Visibility 6.2 miles
Clouds Mostly Cloudy 2400 ft
Mostly Cloudy 3000 ft
Overcast 4200 ft
Windchill 45 °F
Dew Point 41 °F
Humidity 78%
Rainfall 0.16 in
Snow Depth Not available.
8:12 AM 5:56 PM
Waning Crescent, 1% visible
METAR LFPB 072230Z AUTO 20019KT 180V240 9999 BKN024 BKN030 OVC042 09/04 Q1003

10-Day Weather Forecast

Almanac

Astronomy

Feb. 07, 2016 Rise Set
Actual Time
Civil Twilight
Nautical Twilight
Astronomical Twilight
Moon
Length of Visible Light
Length of Day
Tomorrow will be .
, % of the Moon is Illuminated

Today's Extremes

Country Highs Country Lows

Community

WunderPhotos

Upload Photos

1,891,324 photos uploaded!

WunderBlog® & News

Nearby

Air Quality

  Air Quality AQ Index Pollutant
Not available.

Snow Depth

Station Depth Elevation

Earthquake Activity

City Distance Mag. Time & Date
Minimum magnitude displayed is 2.5.

Coastal Water Temperatures

Place Temperature

Stations

Nearby Weather Stations

Station Location Temp. Windchill Dew Point Humidity Wind Precip. Elev Updated Type